Time;durP1;ratioP1;P1;durP2;ratioP2;P2;SDS_P1;SDS_P2;PMS_P1;PMS_P2;Temp;Humidity;BMP_temperature;BMP_pressure;BME280_temperature;BME280_humidity;BME280_pressure;Samples;Min_cycle;Max_cycle;Signal;HPM_P1;HPM_P2
2023/07/06 00:00:55;;;;;;;11.63;6.67;;;14.70;99.90;;;;;;5094962;28;20440;-73
2023/07/06 00:03:24;;;;;;;11.17;7.03;;;14.70;99.90;;;;;;5093480;28;20426;-73
2023/07/06 00:05:53;;;;;;;9.77;6.40;;;14.70;99.90;;;;;;5094826;28;20443;-73
2023/07/06 00:08:22;;;;;;;10.10;6.60;;;14.70;99.90;;;;;;5093550;28;20471;-73
2023/07/06 00:10:51;;;;;;;8.30;7.13;;;14.70;99.90;;;;;;5094725;28;20449;-73
2023/07/06 00:13:20;;;;;;;10.90;6.33;;;14.70;99.90;;;;;;5094632;28;20485;-72
2023/07/06 00:15:49;;;;;;;7.20;5.60;;;14.70;99.90;;;;;;5094543;28;20460;-73
2023/07/06 00:18:20;;;;;;;7.67;6.60;;;14.60;99.90;;;;;;5094592;28;20419;-73
2023/07/06 00:20:49;;;;;;;9.57;6.93;;;14.60;99.90;;;;;;5094608;28;20417;-73
2023/07/06 00:23:18;;;;;;;9.30;7.07;;;14.60;99.90;;;;;;5094483;28;20432;-73
2023/07/06 00:25:47;;;;;;;12.23;7.70;;;14.60;99.90;;;;;;5094497;28;20415;-72
2023/07/06 00:28:24;;;;;;;8.63;7.17;;;14.60;99.90;;;;;;5093062;28;20823;-72
2023/07/06 00:30:55;;;;;;;9.13;6.53;;;14.60;99.90;;;;;;5094443;28;20457;-73
2023/07/06 00:33:25;;;;;;;10.70;7.33;;;14.60;99.90;;;;;;5093205;28;20880;-73
2023/07/06 00:35:53;;;;;;;10.10;7.50;;;14.60;99.90;;;;;;5094194;28;20488;-74
2023/07/06 00:38:23;;;;;;;9.77;7.43;;;14.60;99.90;;;;;;5092815;28;20815;-72
2023/07/06 00:40:56;;;;;;;9.50;8.13;;;14.60;99.90;;;;;;5094854;28;20388;-72
2023/07/06 00:43:28;;;;;;;9.00;7.57;;;14.50;99.90;;;;;;5092840;28;20441;-73
2023/07/06 00:46:03;;;;;;;9.07;7.67;;;14.50;99.90;;;;;;5092889;28;20791;-74
2023/07/06 00:48:36;;;;;;;11.47;7.57;;;14.50;99.90;;;;;;5092781;28;20456;-75
2023/07/06 00:51:09;;;;;;;11.07;7.97;;;14.50;99.90;;;;;;5094290;28;20550;-74
2023/07/06 00:53:41;;;;;;;11.20;7.60;;;14.50;99.90;;;;;;5094194;28;20417;-75
2023/07/06 00:56:13;;;;;;;9.77;7.10;;;14.50;99.90;;;;;;5092703;28;20464;-74
2023/07/06 00:58:46;;;;;;;14.13;7.80;;;14.50;99.90;;;;;;5092821;28;20809;-72
2023/07/06 01:01:16;;;;;;;9.57;7.10;;;14.50;99.90;;;;;;5092658;28;20448;-73
2023/07/06 01:03:48;;;;;;;9.57;6.97;;;14.50;99.90;;;;;;5092513;28;20432;-72
2023/07/06 01:06:20;;;;;;;10.43;7.60;;;14.50;99.90;;;;;;5093904;28;20827;-73
2023/07/06 01:08:49;;;;;;;9.00;6.73;;;14.50;99.90;;;;;;5092671;28;20863;-73
2023/07/06 01:11:19;;;;;;;9.47;6.77;;;14.50;99.90;;;;;;5092397;28;21066;-73
2023/07/06 01:13:49;;;;;;;9.20;6.73;;;14.50;99.90;;;;;;5094138;28;20784;-73
2023/07/06 01:16:25;;;;;;;7.67;6.30;;;14.50;99.90;;;;;;5093719;28;20395;-73
2023/07/06 01:19:03;;;;;;;9.10;7.40;;;14.50;99.90;;;;;;5093551;28;20847;-73
2023/07/06 01:21:40;;;;;;;9.10;7.50;;;14.50;99.90;;;;;;5092282;28;20944;-73
2023/07/06 01:24:40;;;;;;;10.03;7.73;;;14.50;99.90;;;;;;5092537;28;20523;-72
2023/07/06 01:27:32;;;;;;;11.57;7.33;;;14.40;99.90;;;;;;5081975;28;20479;-73
2023/07/06 01:30:34;;;;;;;11.33;8.00;;;14.40;99.90;;;;;;5093055;28;20464;-73
2023/07/06 01:33:08;;;;;;;10.70;8.13;;;14.40;99.90;;;;;;5093874;28;20495;-73
2023/07/06 01:35:43;;;;;;;11.00;7.70;;;14.40;99.90;;;;;;5092142;28;20857;-73
2023/07/06 01:38:13;;;;;;;10.60;8.00;;;14.40;99.90;;;;;;5097768;28;20788;-73
2023/07/06 01:40:42;;;;;;;9.53;7.47;;;14.40;99.90;;;;;;5096496;28;20419;-73
2023/07/06 01:43:13;;;;;;;13.43;7.90;;;14.40;99.90;;;;;;5096437;28;20448;-73
2023/07/06 01:45:41;;;;;;;9.40;7.20;;;14.30;99.90;;;;;;5097507;28;20391;-73
2023/07/06 01:48:13;;;;;;;10.43;7.47;;;14.30;99.90;;;;;;5096227;28;21003;-73
2023/07/06 01:50:48;;;;;;;10.17;8.20;;;14.30;99.90;;;;;;5096381;28;21004;-73
2023/07/06 01:53:24;;;;;;;11.00;7.20;;;14.30;99.90;;;;;;5096134;28;20520;-73
2023/07/06 01:56:01;;;;;;;9.40;7.20;;;14.30;99.90;;;;;;5097664;28;20395;-73
2023/07/06 01:58:34;;;;;;;11.23;7.87;;;14.30;99.90;;;;;;5096230;28;20564;-73
2023/07/06 02:01:08;;;;;;;10.60;8.30;;;14.20;99.90;;;;;;5095837;28;20544;-73
2023/07/06 02:03:39;;;;;;;12.10;8.27;;;14.20;99.90;;;;;;5095948;28;20440;-73
2023/07/06 02:06:10;;;;;;;10.67;7.93;;;14.20;99.90;;;;;;5095786;28;20530;-73
2023/07/06 02:08:41;;;;;;;9.40;7.60;;;14.20;99.90;;;;;;5097749;28;20481;-72
2023/07/06 02:11:11;;;;;;;11.03;7.97;;;14.10;99.90;;;;;;5097077;28;20900;-73
2023/07/06 02:13:39;;;;;;;12.87;8.17;;;14.10;99.90;;;;;;5095712;28;20486;-73
2023/07/06 02:16:09;;;;;;;11.57;8.03;;;14.10;99.90;;;;;;5095587;28;20429;-72
2023/07/06 02:18:39;;;;;;;9.80;8.30;;;14.10;99.90;;;;;;5097090;28;20957;-72
2023/07/06 02:21:07;;;;;;;12.80;8.13;;;14.10;99.90;;;;;;5095491;28;20453;-73
2023/07/06 02:23:36;;;;;;;10.33;7.20;;;14.10;99.90;;;;;;5095636;28;20476;-73
2023/07/06 02:26:04;;;;;;;9.97;7.57;;;14.10;99.90;;;;;;5095879;28;20471;-73
2023/07/06 02:28:34;;;;;;;10.70;8.23;;;14.10;99.90;;;;;;5095291;28;20443;-74
2023/07/06 02:31:04;;;;;;;9.60;7.90;;;14.00;99.90;;;;;;5095322;28;20436;-74
2023/07/06 02:33:34;;;;;;;10.30;7.63;;;14.00;99.90;;;;;;5096794;28;20431;-74
2023/07/06 02:36:04;;;;;;;10.10;7.17;;;14.10;99.90;;;;;;5096654;28;20946;-74
2023/07/06 02:38:34;;;;;;;9.00;7.30;;;14.00;99.90;;;;;;5095218;28;20604;-74
2023/07/06 02:41:04;;;;;;;10.57;7.53;;;14.00;99.90;;;;;;5095063;28;20455;-73
2023/07/06 02:43:32;;;;;;;10.07;7.73;;;14.00;99.90;;;;;;5095002;28;20536;-74
2023/07/06 02:46:03;;;;;;;10.10;7.97;;;14.00;99.90;;;;;;5094926;28;20444;-73
2023/07/06 02:48:31;;;;;;;10.90;8.57;;;14.00;99.90;;;;;;5094689;28;20830;-73
2023/07/06 02:51:00;;;;;;;10.87;7.77;;;14.00;99.90;;;;;;5094954;28;20440;-73
2023/07/06 02:53:29;;;;;;;9.20;7.73;;;14.00;99.90;;;;;;5094812;28;20443;-73
2023/07/06 02:55:58;;;;;;;11.07;8.07;;;14.00;99.90;;;;;;5094653;28;20462;-73
2023/07/06 02:58:27;;;;;;;10.40;8.50;;;14.00;99.90;;;;;;5095113;28;20829;-73
2023/07/06 03:00:55;;;;;;;10.47;8.27;;;14.00;99.90;;;;;;5095986;28;20432;-73
2023/07/06 03:03:26;;;;;;;11.50;8.00;;;13.90;99.90;;;;;;5094710;28;20440;-73
2023/07/06 03:05:54;;;;;;;9.50;8.27;;;13.90;99.90;;;;;;5096561;28;20416;-73
2023/07/06 03:08:23;;;;;;;10.90;8.60;;;13.90;99.90;;;;;;5095850;28;20487;-73
2023/07/06 03:10:53;;;;;;;10.87;8.30;;;13.90;99.90;;;;;;5095480;28;20467;-73
2023/07/06 03:13:21;;;;;;;10.90;9.00;;;13.80;99.90;;;;;;5094229;28;20998;-73
2023/07/06 03:15:52;;;;;;;9.60;8.07;;;13.80;99.90;;;;;;5094256;28;20490;-73
2023/07/06 03:18:20;;;;;;;10.30;8.53;;;13.80;99.90;;;;;;5096265;28;20842;-73
2023/07/06 03:20:49;;;;;;;11.93;9.13;;;13.80;99.90;;;;;;5094359;28;20452;-73
2023/07/06 03:23:18;;;;;;;10.47;8.90;;;13.80;99.90;;;;;;5094251;28;20456;-72
2023/07/06 03:25:50;;;;;;;10.60;8.37;;;13.80;99.90;;;;;;5095776;28;20428;-73
2023/07/06 03:28:22;;;;;;;10.70;9.03;;;13.80;99.90;;;;;;5094936;28;20819;-73
2023/07/06 03:30:55;;;;;;;10.90;9.30;;;13.70;99.90;;;;;;5094624;28;20472;-74
2023/07/06 03:33:25;;;;;;;11.50;9.70;;;13.70;99.90;;;;;;5094236;28;20501;-73
2023/07/06 03:35:54;;;;;;;10.90;8.80;;;13.70;99.90;;;;;;5095665;28;20458;-74
2023/07/06 03:38:25;;;;;;;11.07;9.40;;;13.70;99.90;;;;;;5094173;28;20476;-73
2023/07/06 03:40:53;;;;;;;14.00;9.40;;;13.70;99.90;;;;;;5093950;28;20793;-74
2023/07/06 03:43:23;;;;;;;10.83;8.93;;;13.70;99.90;;;;;;5094093;28;20460;-73
2023/07/06 03:45:51;;;;;;;10.23;8.60;;;13.70;99.90;;;;;;5094078;28;20437;-73
2023/07/06 03:48:21;;;;;;;12.93;9.30;;;13.70;99.90;;;;;;5093764;28;20460;-73
2023/07/06 03:50:52;;;;;;;14.97;9.70;;;13.70;99.90;;;;;;5095018;28;20511;-73
2023/07/06 03:53:21;;;;;;;12.50;10.23;;;13.60;99.90;;;;;;5093881;28;20539;-73
2023/07/06 03:55:53;;;;;;;12.17;9.40;;;13.70;99.90;;;;;;5094923;28;20464;-73
2023/07/06 03:58:24;;;;;;;10.77;9.67;;;13.70;99.90;;;;;;5095128;28;20869;-73
2023/07/06 04:00:52;;;;;;;12.50;9.33;;;13.60;99.90;;;;;;5094678;28;20959;-73
2023/07/06 04:03:20;;;;;;;17.20;9.87;;;13.70;99.90;;;;;;5093414;28;20441;-73
2023/07/06 04:05:50;;;;;;;11.80;9.63;;;13.70;99.90;;;;;;5093782;28;20863;-73
2023/07/06 04:08:20;;;;;;;10.67;9.57;;;13.70;99.90;;;;;;5093448;28;20459;-73
2023/07/06 04:10:48;;;;;;;12.40;10.57;;;13.70;99.90;;;;;;5095656;28;20519;-73
2023/07/06 04:13:17;;;;;;;13.37;9.87;;;13.70;99.90;;;;;;5093628;28;20475;-73
2023/07/06 04:15:48;;;;;;;12.33;10.27;;;13.70;99.90;;;;;;5094564;28;20411;-73
2023/07/06 04:18:16;;;;;;;12.10;9.90;;;13.70;99.90;;;;;;5094614;28;20417;-73
2023/07/06 04:20:46;;;;;;;12.60;9.80;;;13.70;99.90;;;;;;5094558;28;20840;-73
2023/07/06 04:23:15;;;;;;;10.43;9.30;;;13.70;99.90;;;;;;5094439;28;20432;-73
2023/07/06 04:25:43;;;;;;;12.10;10.90;;;13.80;99.90;;;;;;5093098;28;20415;-73
2023/07/06 04:28:14;;;;;;;11.23;9.60;;;13.80;99.90;;;;;;5094654;28;20494;-73
2023/07/06 04:30:44;;;;;;;11.60;10.40;;;13.80;99.90;;;;;;5094646;28;20416;-73
2023/07/06 04:33:16;;;;;;;12.20;10.77;;;13.80;99.90;;;;;;5092962;28;20830;-72
2023/07/06 04:35:45;;;;;;;13.07;11.50;;;13.80;99.90;;;;;;5093161;28;20466;-73
2023/07/06 04:38:13;;;;;;;13.83;11.13;;;13.90;99.90;;;;;;5093073;28;20462;-73
2023/07/06 04:40:43;;;;;;;13.90;10.60;;;13.90;99.90;;;;;;5094400;28;20447;-73
2023/07/06 04:43:12;;;;;;;11.30;10.10;;;13.90;99.90;;;;;;5093022;28;20443;-73
2023/07/06 04:45:40;;;;;;;14.00;10.90;;;13.90;99.90;;;;;;5093175;28;20468;-73
2023/07/06 04:48:10;;;;;;;12.37;11.07;;;14.00;99.90;;;;;;5094593;28;20482;-72
2023/07/06 04:50:40;;;;;;;12.60;11.37;;;14.00;99.90;;;;;;5093122;28;20426;-72
2023/07/06 04:53:09;;;;;;;13.53;10.90;;;14.00;99.90;;;;;;5094212;28;20491;-73
2023/07/06 04:55:37;;;;;;;14.27;11.07;;;14.00;99.90;;;;;;5093857;28;20436;-73
2023/07/06 04:58:06;;;;;;;11.63;10.40;;;14.10;99.90;;;;;;5094094;28;20441;-73
2023/07/06 05:00:39;;;;;;;12.50;10.50;;;14.10;99.90;;;;;;5094254;28;20771;-73
2023/07/06 05:03:09;;;;;;;14.47;10.90;;;14.10;99.90;;;;;;5094152;28;20417;-73
2023/07/06 05:05:40;;;;;;;12.00;10.70;;;14.20;99.90;;;;;;5093615;28;20454;-73
2023/07/06 05:08:13;;;;;;;12.70;11.03;;;14.10;99.90;;;;;;5094449;28;20427;-74
2023/07/06 05:10:42;;;;;;;13.30;11.90;;;14.20;99.90;;;;;;5092801;28;20516;-72
2023/07/06 05:13:10;;;;;;;12.70;10.60;;;14.20;99.90;;;;;;5093536;28;20439;-73
2023/07/06 05:15:38;;;;;;;13.50;11.40;;;14.20;99.90;;;;;;5092683;28;20524;-73
2023/07/06 05:18:07;;;;;;;11.87;10.50;;;14.20;99.90;;;;;;5092406;28;20476;-73
2023/07/06 05:20:36;;;;;;;11.90;10.47;;;14.30;99.90;;;;;;5093461;28;20406;-72
2023/07/06 05:23:07;;;;;;;13.70;11.80;;;14.30;99.90;;;;;;5093768;28;20475;-73
2023/07/06 05:25:36;;;;;;;12.33;10.63;;;14.30;99.90;;;;;;5092237;28;20407;-72
2023/07/06 05:28:04;;;;;;;13.60;10.93;;;14.40;99.90;;;;;;5092127;28;20454;-73
2023/07/06 05:30:33;;;;;;;14.47;11.20;;;14.40;99.90;;;;;;5092250;28;20531;-73
2023/07/06 05:33:01;;;;;;;13.47;10.83;;;14.40;99.90;;;;;;5093579;28;20469;-73
2023/07/06 05:35:29;;;;;;;12.60;11.30;;;14.50;99.90;;;;;;5093327;28;20472;-73
2023/07/06 05:37:57;;;;;;;13.40;11.77;;;14.50;99.90;;;;;;5093398;28;20535;-72
2023/07/06 05:40:27;;;;;;;12.70;11.07;;;14.60;99.90;;;;;;5093235;28;20559;-72
2023/07/06 05:42:55;;;;;;;14.50;11.60;;;14.60;99.90;;;;;;5094330;28;20522;-73
2023/07/06 05:45:23;;;;;;;13.47;11.10;;;14.70;99.90;;;;;;5093850;28;20424;-73
2023/07/06 05:47:51;;;;;;;13.60;11.57;;;14.80;99.90;;;;;;5097849;28;20870;-73
2023/07/06 05:50:20;;;;;;;13.77;10.30;;;15.00;99.90;;;;;;5095466;28;20935;-73
2023/07/06 05:52:49;;;;;;;15.80;11.83;;;15.00;99.90;;;;;;5094490;28;20415;-73
2023/07/06 05:55:18;;;;;;;13.33;10.50;;;15.10;99.90;;;;;;5093546;28;20438;-73
2023/07/06 05:57:47;;;;;;;12.57;9.83;;;15.20;99.90;;;;;;5092529;28;20539;-72
2023/07/06 06:00:15;;;;;;;13.40;11.50;;;15.30;99.90;;;;;;5093392;28;20554;-73
2023/07/06 06:02:44;;;;;;;11.50;9.90;;;15.30;99.90;;;;;;5091229;28;20429;-73
2023/07/06 06:05:14;;;;;;;12.80;10.93;;;15.40;99.90;;;;;;5093683;28;20501;-73
2023/07/06 06:07:43;;;;;;;11.90;10.17;;;15.50;99.90;;;;;;5093732;28;20424;-72
2023/07/06 06:10:12;;;;;;;16.33;11.57;;;15.60;99.90;;;;;;5093330;28;20423;-73
2023/07/06 06:12:41;;;;;;;14.23;10.23;;;15.70;99.90;;;;;;5093381;28;20428;-73
2023/07/06 06:15:11;;;;;;;12.10;10.00;;;15.70;99.90;;;;;;5093729;28;20517;-73
2023/07/06 06:17:40;;;;;;;12.10;10.00;;;15.80;99.90;;;;;;5094584;28;20449;-74
2023/07/06 06:20:09;;;;;;;11.60;9.67;;;15.80;99.90;;;;;;5094385;28;20435;-73
2023/07/06 06:22:40;;;;;;;14.53;11.13;;;15.80;99.90;;;;;;5095734;28;20460;-74
2023/07/06 06:25:08;;;;;;;12.57;10.50;;;15.90;99.90;;;;;;5101196;28;20415;-73
2023/07/06 06:27:36;;;;;;;15.57;10.40;;;15.90;99.90;;;;;;5101054;28;20821;-73
2023/07/06 06:30:06;;;;;;;12.67;10.83;;;15.90;99.90;;;;;;5097647;28;20943;-73
2023/07/06 06:32:36;;;;;;;13.10;10.10;;;15.90;99.90;;;;;;5099282;28;20460;-73
2023/07/06 06:35:19;;;;;;;14.27;11.60;;;16.00;99.90;;;;;;5098989;28;20464;-73
2023/07/06 06:37:47;;;;;;;13.30;10.90;;;16.00;99.90;;;;;;5097103;28;21023;-73
2023/07/06 06:40:16;;;;;;;15.87;9.73;;;16.20;99.90;;;;;;5096486;28;20456;-74
2023/07/06 06:42:44;;;;;;;12.83;10.33;;;16.20;99.90;;;;;;5096204;28;20450;-74
2023/07/06 06:45:12;;;;;;;16.53;11.13;;;16.30;99.90;;;;;;5096181;28;20930;-73
2023/07/06 06:47:42;;;;;;;15.77;11.13;;;16.40;99.90;;;;;;5096347;28;20443;-73
2023/07/06 06:50:11;;;;;;;15.10;11.47;;;16.50;99.90;;;;;;5094968;28;20464;-74
2023/07/06 06:52:40;;;;;;;14.23;11.23;;;16.60;99.90;;;;;;5096274;28;20921;-73
2023/07/06 06:55:09;;;;;;;14.53;10.33;;;16.70;99.90;;;;;;5094784;28;20468;-74
2023/07/06 06:57:37;;;;;;;13.77;11.50;;;16.90;99.90;;;;;;5096235;28;20474;-73
2023/07/06 07:00:09;;;;;;;12.90;10.87;;;17.00;99.90;;;;;;5094841;28;20879;-73
2023/07/06 07:02:39;;;;;;;17.40;11.60;;;17.10;99.90;;;;;;5096888;28;20413;-72
2023/07/06 07:05:09;;;;;;;11.57;9.97;;;17.30;99.90;;;;;;5096156;28;20926;-74
2023/07/06 07:07:38;;;;;;;12.10;10.50;;;17.50;99.90;;;;;;5096061;28;20818;-73
2023/07/06 07:10:09;;;;;;;13.43;9.87;;;17.70;99.90;;;;;;5094580;28;20518;-73
2023/07/06 07:12:38;;;;;;;12.10;8.90;;;17.80;99.90;;;;;;5095964;28;20413;-72
2023/07/06 07:15:09;;;;;;;13.23;9.70;;;18.00;99.90;;;;;;5096120;28;20499;-73
2023/07/06 07:17:38;;;;;;;12.50;9.43;;;18.10;99.90;;;;;;5096289;28;20419;-73
2023/07/06 07:20:09;;;;;;;12.03;9.13;;;18.10;99.90;;;;;;5095952;28;20460;-73
2023/07/06 07:22:38;;;;;;;12.57;8.43;;;18.20;99.90;;;;;;5096046;28;20426;-73
2023/07/06 07:25:08;;;;;;;11.90;8.27;;;18.30;99.90;;;;;;5095974;28;20481;-73
2023/07/06 07:27:36;;;;;;;13.13;9.47;;;18.40;99.90;;;;;;5094599;28;20506;-73
2023/07/06 07:30:05;;;;;;;10.40;7.87;;;18.50;99.90;;;;;;5095398;28;20464;-73
2023/07/06 07:32:33;;;;;;;10.70;7.93;;;18.50;99.90;;;;;;5095517;28;20470;-73
2023/07/06 07:35:03;;;;;;;9.47;8.23;;;18.50;99.90;;;;;;5094489;28;20468;-73
2023/07/06 07:37:32;;;;;;;12.30;8.23;;;18.50;99.90;;;;;;5096112;28;20440;-74
2023/07/06 07:40:01;;;;;;;10.20;8.30;;;18.50;99.90;;;;;;5094214;28;20506;-74
2023/07/06 07:42:32;;;;;;;10.50;8.10;;;18.60;99.90;;;;;;5095430;28;20616;-73
2023/07/06 07:45:00;;;;;;;12.23;9.60;;;18.70;99.90;;;;;;5095830;28;20761;-74
2023/07/06 07:47:28;;;;;;;12.00;8.17;;;18.70;99.90;;;;;;5095842;28;20432;-73
2023/07/06 07:49:57;;;;;;;12.23;8.00;;;18.80;99.90;;;;;;5096086;28;20517;-74
2023/07/06 07:52:25;;;;;;;9.77;7.40;;;18.90;99.90;;;;;;5095723;28;20436;-73
2023/07/06 07:54:55;;;;;;;9.37;6.97;;;19.00;99.90;;;;;;5094572;28;20468;-73
2023/07/06 07:57:23;;;;;;;11.50;6.90;;;19.10;99.90;;;;;;5096151;28;20515;-73
2023/07/06 07:59:51;;;;;;;14.40;7.20;;;19.30;99.90;;;;;;5096439;28;21035;-73
2023/07/06 08:02:19;;;;;;;15.07;7.87;;;19.40;99.90;;;;;;5096900;28;20439;-73
2023/07/06 08:04:48;;;;;;;10.37;6.80;;;19.40;99.90;;;;;;5096117;28;20843;-73
2023/07/06 08:07:16;;;;;;;9.47;7.47;;;19.40;99.90;;;;;;5095560;28;20440;-73
2023/07/06 08:09:44;;;;;;;8.53;6.00;;;19.50;99.90;;;;;;5094451;28;20472;-74
2023/07/06 08:12:14;;;;;;;14.47;6.50;;;19.60;99.90;;;;;;5094432;28;20436;-74
2023/07/06 08:14:42;;;;;;;9.80;6.43;;;19.70;99.90;;;;;;5095545;28;20464;-73
2023/07/06 08:17:16;;;;;;;10.10;5.97;;;19.80;99.90;;;;;;5095221;28;20436;-73
2023/07/06 08:19:45;;;;;;;8.10;4.73;;;19.90;99.90;;;;;;5095600;28;20478;-73
2023/07/06 08:22:35;;;;;;;9.00;5.40;;;20.00;99.90;;;;;;5095250;28;20424;-74
2023/07/06 08:25:07;;;;;;;9.00;5.60;;;20.10;99.90;;;;;;5095417;28;20934;-73
2023/07/06 08:27:40;;;;;;;8.73;5.90;;;20.20;99.90;;;;;;5095199;28;20477;-73
2023/07/06 08:30:09;;;;;;;11.10;5.30;;;20.20;99.90;;;;;;5094827;28;20912;-73
2023/07/06 08:32:37;;;;;;;7.40;5.30;;;20.20;99.90;;;;;;5094936;28;20459;-73
2023/07/06 08:35:06;;;;;;;10.40;5.63;;;20.30;99.90;;;;;;5095279;28;20467;-74
2023/07/06 08:37:36;;;;;;;9.13;4.90;;;20.30;99.90;;;;;;5093458;28;20535;-73
2023/07/06 08:40:04;;;;;;;10.07;5.43;;;20.20;99.90;;;;;;5093522;28;20465;-74
2023/07/06 08:42:33;;;;;;;8.43;5.27;;;20.10;99.90;;;;;;5094973;28;20464;-75
2023/07/06 08:45:03;;;;;;;9.70;5.67;;;20.00;99.90;;;;;;5094432;28;20824;-73
2023/07/06 08:47:31;;;;;;;8.13;5.20;;;20.00;99.90;;;;;;5095089;28;20925;-74
2023/07/06 08:50:03;;;;;;;8.50;5.80;;;20.00;99.90;;;;;;5094122;28;20494;-73
2023/07/06 08:52:31;;;;;;;10.00;4.90;;;19.90;99.90;;;;;;5094228;28;20425;-75
2023/07/06 08:55:00;;;;;;;8.23;4.83;;;19.80;99.90;;;;;;5092760;28;20971;-74
2023/07/06 08:57:30;;;;;;;7.77;4.50;;;19.70;99.90;;;;;;5093299;28;20450;-73
2023/07/06 08:59:59;;;;;;;9.37;5.77;;;19.70;99.90;;;;;;5092936;28;20482;-74
2023/07/06 09:02:31;;;;;;;7.13;5.47;;;19.70;99.90;;;;;;5094065;28;20483;-74
2023/07/06 09:05:08;;;;;;;10.47;5.50;;;19.70;99.90;;;;;;5093091;28;20464;-74
2023/07/06 09:07:39;;;;;;;8.20;5.37;;;19.70;99.90;;;;;;5094694;28;20412;-74
2023/07/06 09:10:12;;;;;;;8.00;5.13;;;19.70;99.90;;;;;;5094048;28;20457;-74
2023/07/06 09:12:53;;;;;;;13.77;5.20;;;19.70;99.90;;;;;;5093890;28;20477;-74
2023/07/06 09:15:26;;;;;;;9.30;5.10;;;19.70;99.90;;;;;;5094307;28;20456;-74
2023/07/06 09:17:59;;;;;;;10.23;5.87;;;19.70;99.90;;;;;;5092721;28;20433;-74
2023/07/06 09:20:28;;;;;;;7.30;4.87;;;19.70;99.90;;;;;;5094551;28;20420;-74
2023/07/06 09:22:57;;;;;;;9.33;5.20;;;19.60;99.90;;;;;;5094884;28;20435;-74
2023/07/06 09:25:29;;;;;;;8.80;5.90;;;19.60;99.90;;;;;;5093842;28;20452;-74
2023/07/06 09:27:59;;;;;;;9.10;4.60;;;19.60;99.90;;;;;;5094959;28;20448;-75
2023/07/06 09:30:30;;;;;;;7.93;5.27;;;19.60;99.90;;;;;;5094759;28;20559;-75
2023/07/06 09:33:14;;;;;;;9.93;5.00;;;19.60;99.90;;;;;;5095564;28;20420;-74
2023/07/06 09:35:43;;;;;;;10.17;5.07;;;19.70;99.90;;;;;;5093096;28;20472;-74
2023/07/06 09:38:13;;;;;;;8.13;4.77;;;19.70;99.90;;;;;;5094341;28;20467;-74
2023/07/06 09:40:43;;;;;;;9.00;5.27;;;19.70;99.90;;;;;;5095293;28;20417;-75
2023/07/06 09:43:22;;;;;;;9.90;5.67;;;19.70;99.90;;;;;;5099855;28;20428;-74
2023/07/06 09:45:52;;;;;;;8.03;5.03;;;19.70;99.90;;;;;;5094155;28;21003;-75
2023/07/06 09:48:32;;;;;;;8.50;5.13;;;19.70;99.90;;;;;;5094007;28;20441;-75
2023/07/06 09:51:11;;;;;;;8.50;5.60;;;19.80;99.90;;;;;;5095231;28;20474;-74
2023/07/06 09:53:47;;;;;;;10.17;6.47;;;19.90;99.90;;;;;;5093898;28;20468;-74
2023/07/06 09:56:15;;;;;;;11.30;5.97;;;20.10;99.90;;;;;;5093284;28;20464;-74
2023/07/06 09:58:46;;;;;;;8.60;6.20;;;20.20;99.90;;;;;;5096729;28;20514;-74
2023/07/06 10:01:20;;;;;;;12.63;6.70;;;20.40;99.90;;;;;;5098615;28;20929;-74
2023/07/06 10:04:03;;;;;;;9.53;5.23;;;20.50;99.90;;;;;;5097042;28;20447;-74
2023/07/06 10:06:43;;;;;;;9.77;4.70;;;20.60;99.90;;;;;;5097571;28;20926;-75
2023/07/06 10:09:17;;;;;;;11.00;6.43;;;20.60;99.90;;;;;;5099011;28;20478;-74
2023/07/06 10:11:51;;;;;;;7.90;5.67;;;20.60;99.90;;;;;;5098604;28;20475;-74
2023/07/06 10:14:28;;;;;;;9.97;5.43;;;20.60;99.90;;;;;;5098253;28;20409;-75
2023/07/06 10:17:08;;;;;;;9.80;5.83;;;20.60;99.90;;;;;;5098293;28;20879;-75
2023/07/06 10:19:47;;;;;;;9.13;6.27;;;20.60;99.90;;;;;;5097937;28;20980;-75
2023/07/06 10:22:23;;;;;;;7.70;5.57;;;20.50;99.90;;;;;;5096849;28;20486;-75
2023/07/06 10:25:00;;;;;;;10.73;7.00;;;20.50;99.90;;;;;;5098206;28;20434;-75
2023/07/06 10:27:33;;;;;;;11.00;6.73;;;20.50;99.90;;;;;;5098045;28;20424;-75
2023/07/06 10:30:08;;;;;;;11.77;6.10;;;20.40;99.90;;;;;;5096769;28;20554;-74
2023/07/06 10:32:40;;;;;;;8.13;6.10;;;20.30;99.90;;;;;;5096539;28;20473;-75
2023/07/06 10:35:18;;;;;;;10.63;5.33;;;20.30;99.90;;;;;;5098296;28;20421;-75
2023/07/06 10:37:48;;;;;;;10.87;5.90;;;20.30;99.90;;;;;;5098042;28;20521;-74
2023/07/06 10:40:21;;;;;;;11.87;6.77;;;20.20;99.90;;;;;;5096158;28;20499;-74
2023/07/06 10:42:52;;;;;;;11.50;6.50;;;20.20;99.90;;;;;;5095230;28;20432;-75
2023/07/06 10:45:43;;;;;;;11.43;6.90;;;20.20;99.90;;;;;;5096683;28;20772;-75
2023/07/06 10:48:14;;;;;;;9.57;6.00;;;20.20;99.90;;;;;;5094985;28;20454;-75
2023/07/06 10:50:50;;;;;;;11.67;6.43;;;20.20;99.90;;;;;;5096462;28;20474;-75
2023/07/06 10:53:25;;;;;;;10.10;6.77;;;20.10;99.90;;;;;;5094966;28;20436;-74
2023/07/06 10:56:04;;;;;;;11.50;6.77;;;20.20;99.90;;;;;;5096349;28;20412;-75
2023/07/06 10:58:35;;;;;;;10.50;7.17;;;20.20;99.90;;;;;;5096342;28;20499;-75
2023/07/06 11:01:09;;;;;;;10.30;6.73;;;20.30;99.90;;;;;;5096087;28;20524;-75
2023/07/06 11:03:39;;;;;;;10.93;5.97;;;20.30;99.90;;;;;;5095922;28;20420;-75
2023/07/06 11:06:14;;;;;;;11.37;6.27;;;20.40;99.90;;;;;;5094633;28;20448;-75
2023/07/06 11:09:14;;;;;;;10.60;5.37;;;20.50;99.90;;;;;;5095902;28;20480;-74
2023/07/06 11:12:03;;;;;;;9.77;4.63;;;20.50;99.90;;;;;;5096893;28;20416;-74
2023/07/06 11:14:39;;;;;;;8.70;4.60;;;20.60;99.90;;;;;;5096375;28;20435;-74
2023/07/06 11:17:21;;;;;;;7.43;3.93;;;20.70;99.90;;;;;;5094765;28;20460;-74
2023/07/06 11:19:56;;;;;;;6.80;4.63;;;20.80;99.90;;;;;;5096016;28;20893;-75
2023/07/06 11:22:26;;;;;;;8.53;4.60;;;20.80;99.90;;;;;;5095791;28;20432;-74
2023/07/06 11:24:59;;;;;;;7.37;4.27;;;20.90;99.90;;;;;;5096202;28;20409;-74
2023/07/06 11:27:31;;;;;;;7.90;4.80;;;20.90;99.90;;;;;;5095815;28;20596;-74
2023/07/06 11:30:12;;;;;;;7.80;4.70;;;20.90;99.90;;;;;;5095614;28;20456;-74
2023/07/06 11:32:52;;;;;;;8.83;5.17;;;20.90;99.90;;;;;;5095411;28;20419;-74
2023/07/06 11:35:35;;;;;;;7.80;4.00;;;20.80;99.90;;;;;;5094238;28;20424;-74
2023/07/06 11:38:21;;;;;;;7.30;3.77;;;20.90;99.90;;;;;;5095379;28;20470;-74
2023/07/06 11:41:11;;;;;;;8.70;4.47;;;20.90;99.90;;;;;;5095606;28;20417;-74
2023/07/06 11:43:52;;;;;;;9.97;4.77;;;20.90;99.90;;;;;;5096001;28;20898;-74
2023/07/06 11:46:32;;;;;;;7.50;5.27;;;20.90;99.90;;;;;;5095401;28;20912;-74
2023/07/06 11:49:16;;;;;;;9.83;4.10;;;20.90;99.90;;;;;;5095440;28;20817;-74
2023/07/06 11:51:47;;;;;;;7.73;4.03;;;20.90;99.90;;;;;;5095156;28;20416;-75
2023/07/06 11:54:29;;;;;;;10.20;5.13;;;20.80;99.90;;;;;;5095404;28;20416;-74
2023/07/06 11:59:42;;;;;;;9.17;5.83;;;20.80;99.90;;;;;;5093683;28;21046;-74
2023/07/06 12:02:16;;;;;;;7.60;4.73;;;20.70;99.90;;;;;;5095515;28;20432;-74
2023/07/06 12:04:46;;;;;;;8.33;4.40;;;20.70;99.90;;;;;;5094955;28;20411;-74
2023/07/06 12:07:25;;;;;;;6.57;4.13;;;20.80;99.90;;;;;;5093639;28;20448;-74
2023/07/06 12:09:55;;;;;;;6.17;4.13;;;20.90;99.90;;;;;;5095315;28;20487;-75
2023/07/06 12:12:24;;;;;;;6.83;3.93;;;21.00;99.90;;;;;;5094799;28;20955;-75
2023/07/06 12:14:54;;;;;;;5.97;4.00;;;21.10;99.90;;;;;;5093764;28;20827;-74
2023/07/06 12:17:23;;;;;;;6.73;3.87;;;21.30;99.90;;;;;;5094387;28;20471;-74
2023/07/06 12:19:57;;;;;;;6.23;3.50;;;21.40;99.90;;;;;;5093908;28;20448;-74
2023/07/06 12:22:25;;;;;;;6.20;4.00;;;21.50;99.90;;;;;;5095040;28;20433;-74
2023/07/06 12:24:55;;;;;;;7.50;3.33;;;21.60;99.90;;;;;;5093046;28;20436;-74
2023/07/06 12:27:24;;;;;;;8.30;3.20;;;21.70;99.90;;;;;;5095277;28;20416;-74
2023/07/06 12:30:06;;;;;;;7.57;3.47;;;21.80;99.90;;;;;;5092900;28;20487;-74
2023/07/06 12:32:37;;;;;;;9.33;3.87;;;21.90;99.90;;;;;;5093903;28;20440;-75
2023/07/06 12:35:08;;;;;;;5.80;3.20;;;22.00;99.90;;;;;;5094823;28;20417;-75
2023/07/06 12:37:41;;;;;;;5.50;3.20;;;22.00;99.90;;;;;;5094276;28;20476;-75
2023/07/06 12:40:21;;;;;;;6.67;2.83;;;21.90;99.90;;;;;;5095599;28;20459;-77
2023/07/06 12:42:51;;;;;;;6.00;3.00;;;21.80;99.90;;;;;;5094922;28;20420;-75
2023/07/06 12:45:21;;;;;;;6.10;3.57;;;21.70;99.90;;;;;;5094414;28;20439;-75
2023/07/06 12:47:56;;;;;;;4.97;2.90;;;21.60;99.90;;;;;;5094665;28;20420;-75
2023/07/06 12:50:29;;;;;;;5.47;2.77;;;21.60;99.90;;;;;;5094141;28;20452;-75
2023/07/06 12:53:08;;;;;;;6.20;3.10;;;21.50;99.90;;;;;;5094358;28;20432;-75
2023/07/06 12:55:41;;;;;;;5.97;3.63;;;21.50;99.90;;;;;;5094762;28;20439;-75
2023/07/06 12:58:17;;;;;;;5.83;3.10;;;21.40;99.90;;;;;;5093998;28;20459;-75
2023/07/06 13:00:49;;;;;;;6.30;3.30;;;21.50;99.90;;;;;;5094270;28;20885;-75
2023/07/06 13:03:18;;;;;;;5.83;3.00;;;21.40;99.90;;;;;;5094560;28;20436;-75